| time (UTC) | temp C | wind direction | speed KPH | gust KPH | rain 1hr cm | rain 24hr cm | rain mn cm | humidity % | barometer mb |
| 20260507225809 | 13 | 282 | 1.6 | 4.8 | 0.00 | 0.00 | 0.00 | 74 | 1014.1 |
| 20260507215309 | 13 | 239 | 6.4 | 19.3 | 0.00 | 0.00 | 0.00 | 80 | 1013.9 |
| 20260507195809 | 15 | 240 | 3.2 | 11.3 | 0.00 | 0.00 | 0.00 | 76 | 1013.0 |
| 20260507195309 | 15 | 245 | 4.8 | 11.3 | 0.00 | 0.00 | 0.00 | 75 | 1013.0 |
| 20260507185810 | 15 | 247 | 3.2 | 8.0 | 0.00 | 0.00 | 0.00 | 73 | 1012.2 |
| 20260507185308 | 15 | 250 | 1.6 | 11.3 | 0.00 | 0.00 | 0.00 | 73 | 1012.2 |
| 20260507175310 | 16 | 253 | 3.2 | 11.3 | 0.00 | 0.00 | 0.00 | 63 | 1011.9 |
| 20260507165809 | 18 | 246 | 4.8 | 19.3 | 0.00 | 0.00 | 0.00 | 57 | 1011.3 |
| 20260507165310 | 18 | 241 | 8.0 | 19.3 | 0.00 | 0.00 | 0.00 | 56 | 1011.2 |
| 20260507155809 | 20 | 212 | 1.6 | 11.3 | 0.00 | 0.00 | 0.00 | 49 | 1010.6 |
| 20260507155310 | 20 | 207 | 3.2 | 9.7 | 0.00 | 0.00 | 0.00 | 47 | 1010.6 |
| 20260507145310 | 21 | 202 | 3.2 | 12.9 | 0.00 | 0.00 | 0.00 | 42 | 1010.5 |
| 20260507135308 | 21 | 277 | 1.6 | 4.8 | 0.00 | 0.00 | 0.00 | 52 | 1010.8 |
| 20260507125309 | 20 | 218 | 1.6 | 4.8 | 0.00 | 0.00 | 0.00 | 49 | 1011.0 |
| 20260507115808 | 18 | 286 | 1.6 | 8.0 | 0.00 | 0.00 | 0.00 | 55 | 1011.4 |
| 20260507115309 | 18 | 255 | 1.6 | 8.0 | 0.00 | 0.00 | 0.00 | 56 | 1011.3 |
| 20260507095808 | 17 | 262 | 8.0 | 16.1 | 0.00 | 0.00 | 0.00 | 62 | 1011.8 |
| 20260507095308 | 17 | 263 | 4.8 | 16.1 | 0.00 | 0.00 | 0.00 | 64 | 1011.8 |
| 20260507085809 | 16 | 278 | 6.4 | 14.5 | 0.00 | 0.00 | 0.00 | 65 | 1011.4 |
| 20260507085308 | 16 | 272 | 8.0 | 14.5 | 0.00 | 0.00 | 0.00 | 63 | 1011.3 |
| 20260507075308 | 15 | 250 | 9.7 | 19.3 | 0.00 | 0.00 | 0.00 | 69 | 1010.8 |
| 20260507025808 | 13 | 251 | 3.2 | 11.3 | 0.00 | 0.00 | 0.00 | 74 | 1008.2 |
| 20260506235307 | 15 | 249 | 8.0 | 19.3 | 0.00 | 0.00 | 0.00 | 73 | 1006.9 |